AIC2MS VABB-VCBI
Flight info
| Callsign | AIC2MS |
|---|---|
| Flight time | N/A |
| Altitude | 39000 |
| Route | VEVAK2A EPKOS Q9 MMV A465 SAGOR SAGOR1A |
| Aircraft | A20N/M-SDE2E3FGHIRWXY/LB1 |
Departure
| Time | 2026-05-06 15:36 |
|---|---|
| Airport | Chhatrapati Shivaji Maharaj International Airport (VABB) |
Arrival
| Time | N/A |
|---|---|
| Airport | Bandaranaike International Colombo Airport (VCBI) |
| Time | Latitude | Longitude | Altitude | Speed | Heading |
|---|---|---|---|---|---|
| 2026-05-06 15:22 | 19.09323 | 72.87081 | 34 ft | 0 kts | 32° |
| 2026-05-06 15:28 | 19.09320 | 72.87079 | 34 ft | 2 kts | 32° |
| 2026-05-06 15:28 | 19.09306 | 72.87069 | 32 ft | 2 kts | 32° |
| 2026-05-06 15:28 | 19.09292 | 72.87060 | 32 ft | 2 kts | 32° |
| 2026-05-06 15:29 | 19.09278 | 72.87051 | 32 ft | 2 kts | 31° |
| 2026-05-06 15:29 | 19.09264 | 72.87042 | 32 ft | 2 kts | 31° |
| 2026-05-06 15:29 | 19.09250 | 72.87033 | 34 ft | 2 kts | 31° |
| 2026-05-06 15:29 | 19.09237 | 72.87022 | 32 ft | 2 kts | 97° |
| 2026-05-06 15:30 | 19.09243 | 72.87005 | 34 ft | 2 kts | 138° |
| 2026-05-06 15:30 | 19.09251 | 72.86998 | 34 ft | 0 kts | 133° |
| 2026-05-06 15:32 | 19.09235 | 72.87022 | 32 ft | 6 kts | 124° |
| 2026-05-06 15:32 | 19.09235 | 72.87069 | 33 ft | 8 kts | 88° |
| 2026-05-06 15:32 | 19.09235 | 72.87114 | 33 ft | 11 kts | 90° |
| 2026-05-06 15:32 | 19.09227 | 72.87240 | 32 ft | 15 kts | 120° |
| 2026-05-06 15:33 | 19.09126 | 72.87263 | 33 ft | 17 kts | 179° |
| 2026-05-06 15:33 | 19.09051 | 72.87311 | 32 ft | 15 kts | 98° |
| 2026-05-06 15:33 | 19.09054 | 72.87429 | 33 ft | 18 kts | 89° |
| 2026-05-06 15:33 | 19.09054 | 72.87568 | 33 ft | 20 kts | 89° |
| 2026-05-06 15:34 | 19.09056 | 72.87728 | 33 ft | 23 kts | 89° |
| 2026-05-06 15:34 | 19.09058 | 72.87817 | 33 ft | 13 kts | 88° |
| 2026-05-06 15:34 | 19.09060 | 72.87970 | 33 ft | 17 kts | 89° |
| 2026-05-06 15:34 | 19.09036 | 72.88045 | 32 ft | 17 kts | 150° |
| 2026-05-06 15:35 | 19.08929 | 72.88005 | 31 ft | 19 kts | 240° |
| 2026-05-06 15:35 | 19.08889 | 72.87870 | 32 ft | 20 kts | 265° |
| 2026-05-06 15:35 | 19.08884 | 72.87601 | 32 ft | 68 kts | 270° |
| 2026-05-06 15:35 | 19.08876 | 72.86882 | 36 ft | 125 kts | 269° |
| 2026-05-06 15:36 | 19.08853 | 72.85822 | 226 ft | 149 kts | 270° |
| 2026-05-06 15:36 | 19.08794 | 72.84793 | 860 ft | 141 kts | 270° |
| 2026-05-06 15:36 | 19.08780 | 72.83307 | 1315 ft | 160 kts | 274° |
| 2026-05-06 15:36 | 19.08786 | 72.82513 | 1642 ft | 164 kts | 273° |
| 2026-05-06 15:37 | 19.08791 | 72.81261 | 2090 ft | 182 kts | 273° |
| 2026-05-06 15:37 | 19.08784 | 72.79840 | 2566 ft | 204 kts | 272° |
| 2026-05-06 15:37 | 19.08766 | 72.78252 | 2973 ft | 229 kts | 272° |
| 2026-05-06 15:37 | 19.08464 | 72.76512 | 3407 ft | 257 kts | 246° |
| 2026-05-06 15:38 | 19.07314 | 72.74979 | 3960 ft | 278 kts | 217° |
| 2026-05-06 15:38 | 19.05536 | 72.74140 | 4743 ft | 285 kts | 189° |
| 2026-05-06 15:38 | 19.03559 | 72.74153 | 5707 ft | 284 kts | 172° |
| 2026-05-06 15:38 | 19.01649 | 72.74460 | 6723 ft | 281 kts | 171° |
| 2026-05-06 15:39 | 18.99696 | 72.74707 | 7595 ft | 285 kts | 175° |
| 2026-05-06 15:39 | 18.97701 | 72.74824 | 8321 ft | 289 kts | 178° |
| 2026-05-06 15:39 | 18.95682 | 72.74840 | 8635 ft | 291 kts | 180° |
| 2026-05-06 15:39 | 18.93655 | 72.74797 | 8763 ft | 291 kts | 181° |
| 2026-05-06 15:40 | 18.91627 | 72.74730 | 8787 ft | 291 kts | 181° |
| 2026-05-06 15:40 | 18.89601 | 72.74659 | 8794 ft | 291 kts | 181° |
| 2026-05-06 15:40 | 18.87604 | 72.74593 | 8895 ft | 279 kts | 181° |
| 2026-05-06 15:40 | 18.85747 | 72.74534 | 9320 ft | 263 kts | 181° |
| 2026-05-06 15:41 | 18.83929 | 72.74478 | 9796 ft | 262 kts | 181° |
| 2026-05-06 15:41 | 18.82103 | 72.74423 | 10553 ft | 262 kts | 181° |
| 2026-05-06 15:41 | 18.80278 | 72.74368 | 11374 ft | 264 kts | 181° |
| 2026-05-06 15:41 | 18.78424 | 72.74358 | 12120 ft | 268 kts | 175° |
| 2026-05-06 15:42 | 18.76578 | 72.74676 | 12911 ft | 271 kts | 164° |
| 2026-05-06 15:42 | 18.74776 | 72.75296 | 13667 ft | 274 kts | 161° |
| 2026-05-06 15:42 | 18.72948 | 72.75946 | 14295 ft | 281 kts | 161° |
| 2026-05-06 15:42 | 18.71101 | 72.76594 | 14616 ft | 285 kts | 161° |
| 2026-05-06 15:43 | 18.69214 | 72.77250 | 14746 ft | 286 kts | 161° |
| 2026-05-06 15:43 | 18.67327 | 72.77904 | 14783 ft | 286 kts | 162° |
| 2026-05-06 15:43 | 18.65437 | 72.78560 | 14785 ft | 285 kts | 162° |
| 2026-05-06 15:43 | 18.63540 | 72.79218 | 14803 ft | 293 kts | 161° |
| 2026-05-06 15:44 | 18.61527 | 72.79917 | 14988 ft | 317 kts | 162° |
| 2026-05-06 15:44 | 18.59360 | 72.80669 | 15167 ft | 339 kts | 162° |
| 2026-05-06 15:44 | 18.57048 | 72.81473 | 15363 ft | 360 kts | 162° |
| 2026-05-06 15:44 | 18.54606 | 72.82320 | 15593 ft | 377 kts | 162° |
| 2026-05-06 15:45 | 18.52091 | 72.83193 | 16136 ft | 383 kts | 162° |
| 2026-05-06 15:45 | 18.49541 | 72.84078 | 16727 ft | 389 kts | 162° |
| 2026-05-06 15:45 | 18.46992 | 72.84962 | 17288 ft | 394 kts | 162° |
| 2026-05-06 15:45 | 18.44374 | 72.85870 | 17892 ft | 397 kts | 162° |
| 2026-05-06 15:46 | 18.41733 | 72.86785 | 18416 ft | 401 kts | 162° |
| 2026-05-06 15:46 | 18.39067 | 72.87709 | 18926 ft | 405 kts | 162° |
| 2026-05-06 15:46 | 18.36381 | 72.88638 | 19454 ft | 408 kts | 163° |
| 2026-05-06 15:46 | 18.33678 | 72.89574 | 19959 ft | 411 kts | 163° |
| 2026-05-06 15:47 | 18.30954 | 72.90516 | 20437 ft | 415 kts | 163° |
| 2026-05-06 15:47 | 18.28203 | 72.91468 | 20916 ft | 418 kts | 163° |
| 2026-05-06 15:47 | 18.25454 | 72.92418 | 21373 ft | 422 kts | 163° |
| 2026-05-06 15:47 | 18.22689 | 72.93374 | 21838 ft | 426 kts | 163° |
| 2026-05-06 15:48 | 18.19864 | 72.94350 | 22304 ft | 429 kts | 163° |
| 2026-05-06 15:48 | 18.17018 | 72.95334 | 22748 ft | 432 kts | 163° |
| 2026-05-06 15:48 | 18.14149 | 72.96324 | 23181 ft | 436 kts | 163° |
| 2026-05-06 15:48 | 18.11274 | 72.97386 | 23581 ft | 440 kts | 158° |
| 2026-05-06 15:49 | 18.08535 | 72.98852 | 23987 ft | 443 kts | 149° |
| 2026-05-06 15:49 | 18.06022 | 73.00739 | 24377 ft | 446 kts | 140° |
| 2026-05-06 15:49 | 18.03711 | 73.02934 | 24748 ft | 449 kts | 138° |
| 2026-05-06 15:49 | 18.01405 | 73.05152 | 25150 ft | 451 kts | 138° |
| 2026-05-06 15:50 | 17.99083 | 73.07375 | 25533 ft | 453 kts | 138° |
| 2026-05-06 15:50 | 17.96781 | 73.09574 | 25890 ft | 455 kts | 138° |
| 2026-05-06 15:50 | 17.94432 | 73.11816 | 26246 ft | 457 kts | 138° |
| 2026-05-06 15:50 | 17.92075 | 73.14063 | 26626 ft | 459 kts | 138° |
| 2026-05-06 15:51 | 17.89705 | 73.16320 | 26996 ft | 461 kts | 138° |
| 2026-05-06 15:51 | 17.87329 | 73.18582 | 27328 ft | 463 kts | 137° |
| 2026-05-06 15:51 | 17.84941 | 73.20856 | 27672 ft | 465 kts | 137° |
| 2026-05-06 15:51 | 17.82539 | 73.23144 | 28005 ft | 467 kts | 137° |
| 2026-05-06 15:52 | 17.80128 | 73.25440 | 28351 ft | 469 kts | 137° |
| 2026-05-06 15:52 | 17.77744 | 73.27710 | 28676 ft | 470 kts | 137° |
| 2026-05-06 15:52 | 17.75315 | 73.30021 | 28988 ft | 473 kts | 137° |
| 2026-05-06 15:52 | 17.72876 | 73.32341 | 29296 ft | 474 kts | 137° |
| 2026-05-06 15:53 | 17.70421 | 73.34676 | 29596 ft | 477 kts | 137° |
| 2026-05-06 15:53 | 17.67964 | 73.37012 | 29909 ft | 478 kts | 137° |
| 2026-05-06 15:53 | 17.65490 | 73.39363 | 30205 ft | 480 kts | 137° |
| 2026-05-06 15:53 | 17.63014 | 73.41714 | 30508 ft | 481 kts | 137° |
| 2026-05-06 15:54 | 17.60535 | 73.44068 | 30797 ft | 482 kts | 137° |
| 2026-05-06 15:54 | 17.58046 | 73.46431 | 31111 ft | 483 kts | 137° |
| 2026-05-06 15:54 | 17.55589 | 73.48762 | 31491 ft | 482 kts | 138° |
| 2026-05-06 15:54 | 17.53116 | 73.51108 | 31884 ft | 480 kts | 138° |
| 2026-05-06 15:55 | 17.50639 | 73.53456 | 32280 ft | 478 kts | 138° |
| 2026-05-06 15:55 | 17.48175 | 73.55792 | 32662 ft | 477 kts | 138° |
| 2026-05-06 15:55 | 17.45720 | 73.58119 | 33024 ft | 476 kts | 138° |
| 2026-05-06 15:55 | 17.43268 | 73.60441 | 33381 ft | 475 kts | 138° |
| 2026-05-06 15:56 | 17.40820 | 73.62760 | 33734 ft | 473 kts | 139° |
| 2026-05-06 15:56 | 17.38381 | 73.65069 | 34051 ft | 472 kts | 139° |
| 2026-05-06 15:56 | 17.35978 | 73.67341 | 34308 ft | 472 kts | 139° |
| 2026-05-06 15:56 | 17.33541 | 73.69646 | 34566 ft | 472 kts | 139° |
| 2026-05-06 15:57 | 17.31109 | 73.71944 | 34818 ft | 471 kts | 139° |
| 2026-05-06 15:57 | 17.28672 | 73.74247 | 35069 ft | 471 kts | 139° |
| 2026-05-06 15:57 | 17.26241 | 73.76542 | 35317 ft | 471 kts | 139° |
| 2026-05-06 15:57 | 17.23809 | 73.78838 | 35563 ft | 471 kts | 139° |
| 2026-05-06 15:58 | 17.21380 | 73.81130 | 35823 ft | 470 kts | 139° |
| 2026-05-06 15:58 | 17.18949 | 73.83424 | 36081 ft | 470 kts | 139° |
| 2026-05-06 15:58 | 17.16520 | 73.85715 | 36351 ft | 470 kts | 139° |
| 2026-05-06 15:58 | 17.14135 | 73.87962 | 36599 ft | 469 kts | 139° |
| 2026-05-06 15:59 | 17.11704 | 73.90254 | 36857 ft | 469 kts | 139° |
| 2026-05-06 15:59 | 17.09285 | 73.92532 | 37122 ft | 469 kts | 139° |
| 2026-05-06 15:59 | 17.06862 | 73.94813 | 37388 ft | 468 kts | 139° |
| 2026-05-06 15:59 | 17.04447 | 73.97087 | 37638 ft | 467 kts | 139° |
| 2026-05-06 16:00 | 17.02029 | 73.99362 | 37875 ft | 467 kts | 139° |
| 2026-05-06 16:00 | 16.99619 | 74.01628 | 38097 ft | 467 kts | 139° |
| 2026-05-06 16:00 | 16.97210 | 74.03894 | 38331 ft | 466 kts | 139° |
| 2026-05-06 16:00 | 16.94802 | 74.06158 | 38550 ft | 465 kts | 139° |
| 2026-05-06 16:01 | 16.92428 | 74.08388 | 38734 ft | 465 kts | 139° |
| 2026-05-06 16:01 | 16.90044 | 74.10646 | 38859 ft | 464 kts | 137° |
| 2026-05-06 16:01 | 16.85768 | 74.15685 | 38884 ft | 463 kts | 129° |
| 2026-05-06 16:02 | 16.81799 | 74.20961 | 38882 ft | 463 kts | 129° |
| 2026-05-06 16:02 | 16.77797 | 74.26244 | 38884 ft | 463 kts | 129° |
| 2026-05-06 16:03 | 16.73798 | 74.31521 | 38883 ft | 463 kts | 129° |
| 2026-05-06 16:03 | 16.69777 | 74.36821 | 38886 ft | 470 kts | 129° |
| 2026-05-06 16:04 | 16.65714 | 74.42175 | 38885 ft | 477 kts | 129° |
| 2026-05-06 16:04 | 16.61594 | 74.47600 | 38882 ft | 477 kts | 129° |
| 2026-05-06 16:05 | 16.57471 | 74.53026 | 38884 ft | 477 kts | 129° |
| 2026-05-06 16:05 | 16.53366 | 74.58422 | 38881 ft | 477 kts | 129° |
| 2026-05-06 16:06 | 16.49268 | 74.63805 | 38880 ft | 477 kts | 129° |
| 2026-05-06 16:06 | 16.45157 | 74.69199 | 38882 ft | 477 kts | 129° |
| 2026-05-06 16:07 | 16.41031 | 74.74608 | 38882 ft | 476 kts | 129° |
| 2026-05-06 16:07 | 16.36912 | 74.80007 | 38875 ft | 476 kts | 129° |
| 2026-05-06 16:08 | 16.32769 | 74.85431 | 38874 ft | 481 kts | 129° |
| 2026-05-06 16:08 | 16.28621 | 74.90856 | 38865 ft | 484 kts | 129° |
| 2026-05-06 16:09 | 16.24432 | 74.96333 | 38874 ft | 483 kts | 129° |
| 2026-05-06 16:09 | 16.20250 | 75.01795 | 38870 ft | 483 kts | 129° |
| 2026-05-06 16:10 | 16.16055 | 75.07270 | 38871 ft | 483 kts | 129° |
| 2026-05-06 16:10 | 16.11909 | 75.12678 | 38871 ft | 482 kts | 129° |
| 2026-05-06 16:11 | 16.07716 | 75.18143 | 38866 ft | 482 kts | 129° |
| 2026-05-06 16:11 | 16.03545 | 75.23575 | 38870 ft | 481 kts | 129° |
| 2026-05-06 16:12 | 15.99355 | 75.29028 | 38861 ft | 482 kts | 129° |
| 2026-05-06 16:12 | 15.95210 | 75.34419 | 38856 ft | 482 kts | 129° |
| 2026-05-06 16:13 | 15.90580 | 75.40436 | 38854 ft | 482 kts | 129° |
| 2026-05-06 16:13 | 15.86380 | 75.45889 | 38849 ft | 482 kts | 129° |
| 2026-05-06 16:14 | 15.82196 | 75.51317 | 38849 ft | 482 kts | 129° |
| 2026-05-06 16:14 | 15.78714 | 75.55833 | 38855 ft | 482 kts | 129° |
| 2026-05-06 16:15 | 15.73822 | 75.62171 | 38856 ft | 481 kts | 129° |
| 2026-05-06 16:15 | 15.69660 | 75.67560 | 38855 ft | 481 kts | 129° |
| 2026-05-06 16:16 | 15.65470 | 75.72979 | 38855 ft | 481 kts | 129° |
| 2026-05-06 16:16 | 15.61280 | 75.78397 | 38854 ft | 481 kts | 129° |
| 2026-05-06 16:17 | 15.57089 | 75.83810 | 38856 ft | 481 kts | 129° |
| 2026-05-06 16:17 | 15.52928 | 75.89182 | 38855 ft | 481 kts | 129° |
| 2026-05-06 16:18 | 15.48738 | 75.94586 | 38857 ft | 481 kts | 129° |
| 2026-05-06 16:18 | 15.44545 | 75.99992 | 38859 ft | 481 kts | 130° |
| 2026-05-06 16:19 | 15.41057 | 76.04485 | 38854 ft | 481 kts | 130° |
| 2026-05-06 16:19 | 15.36156 | 76.10793 | 38853 ft | 481 kts | 130° |
| 2026-05-06 16:20 | 15.31988 | 76.16154 | 38856 ft | 481 kts | 130° |
| 2026-05-06 16:20 | 15.28501 | 76.20638 | 38858 ft | 481 kts | 130° |
| 2026-05-06 16:21 | 15.23596 | 76.26937 | 38855 ft | 480 kts | 130° |
| 2026-05-06 16:21 | 15.20114 | 76.31408 | 38863 ft | 480 kts | 130° |
| 2026-05-06 16:22 | 15.15926 | 76.36782 | 38867 ft | 479 kts | 130° |
| 2026-05-06 16:22 | 15.11066 | 76.43009 | 38865 ft | 478 kts | 130° |
| 2026-05-06 16:23 | 15.07591 | 76.47458 | 38872 ft | 478 kts | 130° |
| 2026-05-06 16:23 | 15.02717 | 76.53695 | 38876 ft | 476 kts | 130° |
| 2026-05-06 16:24 | 14.99956 | 76.57228 | 38880 ft | 476 kts | 130° |
| 2026-05-06 16:24 | 14.95097 | 76.63437 | 38876 ft | 475 kts | 130° |
| 2026-05-06 16:25 | 14.90975 | 76.68703 | 38876 ft | 474 kts | 130° |
| 2026-05-06 16:25 | 14.86822 | 76.74001 | 38880 ft | 474 kts | 130° |
| 2026-05-06 16:26 | 14.82673 | 76.79293 | 38881 ft | 474 kts | 130° |
| 2026-05-06 16:26 | 14.78527 | 76.84578 | 38881 ft | 473 kts | 130° |
| 2026-05-06 16:27 | 14.74414 | 76.89817 | 38887 ft | 473 kts | 130° |
| 2026-05-06 16:27 | 14.70269 | 76.95094 | 38886 ft | 472 kts | 130° |
| 2026-05-06 16:28 | 14.66130 | 77.00358 | 38885 ft | 472 kts | 130° |
| 2026-05-06 16:28 | 14.61989 | 77.05622 | 38889 ft | 472 kts | 130° |
| 2026-05-06 16:29 | 14.57871 | 77.10902 | 38895 ft | 472 kts | 128° |
| 2026-05-06 16:29 | 14.54035 | 77.16338 | 38897 ft | 471 kts | 127° |
| 2026-05-06 16:30 | 14.50824 | 77.20932 | 38900 ft | 471 kts | 127° |
| 2026-05-06 16:30 | 14.46327 | 77.27279 | 38907 ft | 472 kts | 128° |
| 2026-05-06 16:31 | 14.42439 | 77.32735 | 38910 ft | 472 kts | 128° |
| 2026-05-06 16:31 | 14.38575 | 77.38153 | 38907 ft | 472 kts | 128° |
| 2026-05-06 16:32 | 14.34684 | 77.43608 | 38916 ft | 473 kts | 128° |
| 2026-05-06 16:32 | 14.32768 | 77.46295 | 38919 ft | 457 kts | 128° |
| 2026-05-06 16:32 | 14.30914 | 77.48896 | 38919 ft | 444 kts | 128° |
| 2026-05-06 16:33 | 14.27272 | 77.53993 | 38926 ft | 439 kts | 128° |
| 2026-05-06 16:34 | 14.21898 | 77.61509 | 38932 ft | 438 kts | 128° |
| 2026-05-06 16:34 | 14.18241 | 77.66620 | 38934 ft | 448 kts | 128° |
| 2026-05-06 16:35 | 14.14528 | 77.71805 | 38936 ft | 449 kts | 128° |
| 2026-05-06 16:35 | 14.10824 | 77.76979 | 38942 ft | 449 kts | 128° |
| 2026-05-06 16:36 | 14.07116 | 77.82153 | 38943 ft | 449 kts | 127° |
| 2026-05-06 16:36 | 14.03430 | 77.87292 | 38944 ft | 449 kts | 127° |
| 2026-05-06 16:37 | 14.00150 | 77.92751 | 38935 ft | 450 kts | 116° |
| 2026-05-06 16:37 | 13.98838 | 77.95661 | 38717 ft | 447 kts | 116° |
| 2026-05-06 16:37 | 13.97527 | 77.98566 | 38159 ft | 447 kts | 116° |
| 2026-05-06 16:37 | 13.96218 | 78.01471 | 37441 ft | 448 kts | 116° |
| 2026-05-06 16:38 | 13.94904 | 78.04392 | 36660 ft | 451 kts | 116° |
| 2026-05-06 16:38 | 13.93583 | 78.07328 | 35885 ft | 453 kts | 116° |
| 2026-05-06 16:38 | 13.92154 | 78.10228 | 35124 ft | 456 kts | 120° |
| 2026-05-06 16:38 | 13.90614 | 78.13091 | 34362 ft | 459 kts | 120° |
| 2026-05-06 16:39 | 13.89077 | 78.15924 | 33567 ft | 461 kts | 120° |
| 2026-05-06 16:39 | 13.87512 | 78.18815 | 32740 ft | 463 kts | 120° |
| 2026-05-06 16:39 | 13.85951 | 78.21714 | 32149 ft | 464 kts | 120° |
| 2026-05-06 16:39 | 13.84381 | 78.24637 | 31831 ft | 471 kts | 120° |
| 2026-05-06 16:40 | 13.82789 | 78.27604 | 31597 ft | 474 kts | 120° |
| 2026-05-06 16:40 | 13.81198 | 78.30571 | 31363 ft | 474 kts | 120° |
| 2026-05-06 16:40 | 13.79603 | 78.33546 | 31126 ft | 474 kts | 120° |
| 2026-05-06 16:40 | 13.78010 | 78.36515 | 30900 ft | 476 kts | 120° |
| 2026-05-06 16:41 | 13.76408 | 78.39500 | 30670 ft | 476 kts | 120° |
| 2026-05-06 16:41 | 13.74810 | 78.42477 | 30443 ft | 475 kts | 120° |
| 2026-05-06 16:41 | 13.73217 | 78.45443 | 30213 ft | 473 kts | 120° |
| 2026-05-06 16:41 | 13.71648 | 78.48362 | 29989 ft | 472 kts | 119° |
| 2026-05-06 16:42 | 13.70063 | 78.51310 | 29736 ft | 470 kts | 120° |
| 2026-05-06 16:42 | 13.68483 | 78.54249 | 29470 ft | 469 kts | 120° |
| 2026-05-06 16:42 | 13.66909 | 78.57175 | 29206 ft | 467 kts | 120° |
| 2026-05-06 16:42 | 13.65342 | 78.60088 | 28947 ft | 465 kts | 120° |
| 2026-05-06 16:43 | 13.63779 | 78.62990 | 28690 ft | 463 kts | 120° |
| 2026-05-06 16:43 | 13.62222 | 78.65882 | 28433 ft | 461 kts | 120° |
| 2026-05-06 16:43 | 13.60672 | 78.68760 | 28178 ft | 460 kts | 120° |
| 2026-05-06 16:43 | 13.59119 | 78.71641 | 27930 ft | 463 kts | 120° |
| 2026-05-06 16:44 | 13.57556 | 78.74539 | 27689 ft | 463 kts | 120° |
| 2026-05-06 16:44 | 13.56021 | 78.77388 | 27441 ft | 460 kts | 120° |
| 2026-05-06 16:44 | 13.54478 | 78.80249 | 27195 ft | 457 kts | 120° |
| 2026-05-06 16:44 | 13.52934 | 78.83109 | 26950 ft | 456 kts | 120° |
| 2026-05-06 16:45 | 13.51397 | 78.85957 | 26393 ft | 458 kts | 120° |
| 2026-05-06 16:45 | 13.49846 | 78.88830 | 25726 ft | 458 kts | 120° |
| 2026-05-06 16:45 | 13.48300 | 78.91691 | 25059 ft | 457 kts | 120° |
| 2026-05-06 16:45 | 13.46763 | 78.94536 | 24395 ft | 455 kts | 120° |
| 2026-05-06 16:46 | 13.45233 | 78.97367 | 23753 ft | 453 kts | 120° |
| 2026-05-06 16:46 | 13.43709 | 79.00186 | 23015 ft | 451 kts | 120° |
| 2026-05-06 16:46 | 13.42199 | 79.02977 | 22416 ft | 444 kts | 120° |
| 2026-05-06 16:46 | 13.40726 | 79.05700 | 21778 ft | 440 kts | 120° |
| 2026-05-06 16:47 | 13.39249 | 79.08428 | 21116 ft | 433 kts | 120° |
| 2026-05-06 16:47 | 13.37809 | 79.11089 | 20456 ft | 421 kts | 120° |
| 2026-05-06 16:47 | 13.36409 | 79.13676 | 19865 ft | 409 kts | 120° |
| 2026-05-06 16:47 | 13.35043 | 79.16198 | 19262 ft | 398 kts | 120° |
| 2026-05-06 16:48 | 13.33713 | 79.18652 | 18684 ft | 389 kts | 120° |
| 2026-05-06 16:48 | 13.32408 | 79.21058 | 18089 ft | 381 kts | 120° |
| 2026-05-06 16:48 | 13.31132 | 79.23411 | 17488 ft | 372 kts | 119° |
| 2026-05-06 16:48 | 13.29893 | 79.25695 | 16940 ft | 363 kts | 119° |
| 2026-05-06 16:49 | 13.28618 | 79.28043 | 16373 ft | 389 kts | 119° |
| 2026-05-06 16:49 | 13.27301 | 79.30469 | 15895 ft | 396 kts | 119° |
| 2026-05-06 16:49 | 13.25959 | 79.32941 | 15167 ft | 398 kts | 119° |
| 2026-05-06 16:49 | 13.24621 | 79.35404 | 14548 ft | 391 kts | 118° |
| 2026-05-06 16:50 | 13.23845 | 79.36833 | 14186 ft | 385 kts | 118° |
| 2026-05-06 16:50 | 13.22563 | 79.39190 | 13596 ft | 374 kts | 118° |
| 2026-05-06 16:50 | 13.21318 | 79.41481 | 13053 ft | 360 kts | 118° |
| 2026-05-06 16:50 | 13.20114 | 79.43696 | 12390 ft | 352 kts | 118° |
| 2026-05-06 16:51 | 13.18932 | 79.45872 | 12028 ft | 351 kts | 118° |
| 2026-05-06 16:51 | 13.17736 | 79.48075 | 11904 ft | 353 kts | 118° |
| 2026-05-06 16:51 | 13.16538 | 79.50277 | 11870 ft | 352 kts | 118° |
| 2026-05-06 16:51 | 13.15351 | 79.52460 | 11571 ft | 351 kts | 117° |
| 2026-05-06 16:52 | 13.14172 | 79.54625 | 10812 ft | 354 kts | 117° |
| 2026-05-06 16:52 | 13.12963 | 79.56846 | 9719 ft | 360 kts | 117° |
| 2026-05-06 16:52 | 13.11729 | 79.59115 | 8304 ft | 369 kts | 117° |
| 2026-05-06 16:52 | 13.10491 | 79.61390 | 7646 ft | 356 kts | 118° |
| 2026-05-06 16:53 | 13.09319 | 79.63537 | 7399 ft | 333 kts | 118° |
| 2026-05-06 16:53 | 13.08228 | 79.65535 | 7195 ft | 310 kts | 118° |
| 2026-05-06 16:53 | 13.07210 | 79.67402 | 7027 ft | 290 kts | 118° |
| 2026-05-06 16:53 | 13.06260 | 79.69144 | 6859 ft | 271 kts | 118° |
| 2026-05-06 16:54 | 13.05361 | 79.70768 | 6687 ft | 255 kts | 123° |
| 2026-05-06 16:54 | 13.04130 | 79.72047 | 6503 ft | 251 kts | 139° |
| 2026-05-06 16:54 | 13.02838 | 79.73149 | 6319 ft | 239 kts | 139° |
| 2026-05-06 16:54 | 13.01601 | 79.74203 | 6114 ft | 225 kts | 139° |
| 2026-05-06 16:55 | 13.00432 | 79.75202 | 5902 ft | 213 kts | 139° |
| 2026-05-06 16:55 | 12.99324 | 79.76145 | 5699 ft | 202 kts | 139° |
| 2026-05-06 16:55 | 12.98261 | 79.77042 | 5499 ft | 197 kts | 139° |
| 2026-05-06 16:55 | 12.97194 | 79.77947 | 5312 ft | 199 kts | 139° |
| 2026-05-06 16:56 | 12.96136 | 79.78843 | 5187 ft | 195 kts | 139° |
| 2026-05-06 16:56 | 12.95082 | 79.79737 | 5037 ft | 198 kts | 139° |
| 2026-05-06 16:56 | 12.94047 | 79.80647 | 4840 ft | 194 kts | 130° |
| 2026-05-06 16:56 | 12.93506 | 79.81877 | 4661 ft | 192 kts | 100° |
| 2026-05-06 16:57 | 12.93285 | 79.83222 | 4460 ft | 191 kts | 99° |
| 2026-05-06 16:57 | 12.93079 | 79.84547 | 4267 ft | 190 kts | 98° |
| 2026-05-06 16:57 | 12.92876 | 79.85884 | 4067 ft | 189 kts | 99° |
| 2026-05-06 16:57 | 12.92678 | 79.87214 | 3872 ft | 189 kts | 99° |
| 2026-05-06 16:58 | 12.92485 | 79.88538 | 3682 ft | 187 kts | 99° |
| 2026-05-06 16:58 | 12.92299 | 79.89855 | 3490 ft | 186 kts | 99° |
| 2026-05-06 16:58 | 12.92120 | 79.91169 | 3300 ft | 186 kts | 99° |
| 2026-05-06 16:58 | 12.91947 | 79.92475 | 3096 ft | 184 kts | 99° |
| 2026-05-06 16:59 | 12.91779 | 79.93779 | 2903 ft | 185 kts | 98° |
| 2026-05-06 16:59 | 12.91620 | 79.95063 | 2716 ft | 183 kts | 98° |
| 2026-05-06 16:59 | 12.91627 | 79.96363 | 2524 ft | 184 kts | 85° |
| 2026-05-06 16:59 | 12.91916 | 79.97653 | 2327 ft | 186 kts | 76° |
| 2026-05-06 17:00 | 12.92336 | 79.98897 | 2133 ft | 185 kts | 72° |
| 2026-05-06 17:00 | 12.92794 | 80.00136 | 1943 ft | 185 kts | 72° |
| 2026-05-06 17:00 | 12.93254 | 80.01375 | 1802 ft | 187 kts | 71° |
| 2026-05-06 17:00 | 12.93711 | 80.02605 | 1789 ft | 183 kts | 71° |
| 2026-05-06 17:01 | 12.94169 | 80.03838 | 1784 ft | 185 kts | 72° |
| 2026-05-06 17:01 | 12.94601 | 80.04997 | 1793 ft | 164 kts | 71° |
| 2026-05-06 17:01 | 12.94975 | 80.06001 | 1776 ft | 137 kts | 72° |
| 2026-05-06 17:01 | 12.95301 | 80.06883 | 1723 ft | 134 kts | 72° |
| 2026-05-06 17:02 | 12.95629 | 80.07767 | 1570 ft | 133 kts | 72° |
| 2026-05-06 17:02 | 12.95953 | 80.08641 | 1383 ft | 131 kts | 72° |
| 2026-05-06 17:02 | 12.96278 | 80.09516 | 1218 ft | 131 kts | 72° |
| 2026-05-06 17:02 | 12.96602 | 80.10388 | 1054 ft | 131 kts | 72° |